DTTL

Kelibia Airport

Kelibia, Tunisia
METAR DTTL 190500Z AUTO 27003KT 210V350 NCD 09/08 Q1015
Observed Flight Rules
Jan-19 @ 05:00 UTC (an hour ago)
Wind Clouds
270° at 3 knots
  • Clear skies
Temperatures Readings
Current 9°C / 48°F
Dewpoint 8°C / 46°F
Humidity 94%
Altimeter 29.97" Hg
Pressure 1014.92 hPa
Elevation 30
METAR DTTL 190500Z AUTO 27003KT 210V350 NCD 09/08 Q1015
Observed Flight Rules
Jan-19 @ 05:00 UTC
(an hour ago)
Wind
270° at 3 knots
Clouds
  • Clear skies
Temperature Dewpoint
9°C / 48°F 8°C / 46°F
Humidity Altimeter Pressure
94% 29.97" Hg 1014.92 hPa